Etherton, Illinois
Current Conditions -  °F | °C
As of 2:52 AM on Friday 31 Oct 2014 (Local Time) from KMDH Reporting Station
Overcast Overcast  
Wind Chill: 50°   Ceiling: 4900
Heat Index: 50°   Visibility: 10mi
Dew Point: 48°   Wind: 0mph
Humidity: 93%   Direction: NA
Pressure: 30.02"   Gusts: NA
Location:  37.776°N, 89.3234°W
Report Text: KMDH 310752Z AUTO 00000KT 10SM OVC049 10/09 A3002 RMK AO2 SLP165 T01000089
Loading
Personal Weather Stations






























Interactive Weather Map
Tropical Storm Tracking
New forecast layout! Learn more

10-Day Weather Forecast

Advertisements
Track Severe Weather on mobile